createdAt,value
2023-03-12T00:01:16.686Z,0.20
2023-03-12T00:03:45.178Z,0.20
2023-03-12T00:06:13.270Z,0.10
2023-03-12T00:08:42.185Z,0.10
2023-03-12T00:11:13.965Z,0.10
2023-03-12T00:13:43.029Z,0.10
2023-03-12T00:16:13.977Z,0.10
2023-03-12T00:18:44.089Z,0.10
2023-03-12T00:21:12.392Z,0.10
2023-03-12T00:23:40.565Z,0.10
2023-03-12T00:26:12.735Z,0.00
2023-03-12T00:28:41.961Z,0.10
2023-03-12T00:31:17.519Z,0.00
2023-03-12T00:33:46.632Z,0.00
2023-03-12T00:36:14.471Z,0.10
2023-03-12T00:38:42.494Z,0.10
2023-03-12T00:41:12.253Z,0.10
2023-03-12T00:43:40.158Z,0.10
2023-03-12T00:46:08.284Z,0.10
2023-03-12T00:48:37.174Z,0.10
2023-03-12T00:51:05.882Z,0.10
2023-03-12T00:53:33.816Z,0.10
2023-03-12T00:56:02.046Z,0.10
2023-03-12T00:58:31.564Z,0.10
2023-03-12T01:00:59.737Z,0.10
2023-03-12T01:03:27.743Z,0.00
2023-03-12T01:05:55.652Z,0.10
2023-03-12T01:08:24.948Z,0.10
2023-03-12T01:10:53.218Z,0.10
2023-03-12T01:13:22.427Z,0.10
2023-03-12T01:15:51.733Z,0.20
2023-03-12T01:18:20.220Z,0.20
2023-03-12T01:20:48.309Z,0.10
2023-03-12T01:23:16.615Z,0.10
2023-03-12T01:25:44.856Z,0.10
2023-03-12T01:28:12.727Z,0.00
2023-03-12T01:30:40.592Z,0.00
2023-03-12T01:33:09.929Z,0.00
2023-03-12T01:35:40.233Z,0.00
2023-03-12T01:38:10.234Z,-0.10
2023-03-12T01:40:38.187Z,-0.10
2023-03-12T01:43:30.719Z,-0.10
2023-03-12T01:46:22.333Z,-0.10
2023-03-12T01:48:57.751Z,0.00
2023-03-12T01:51:32.971Z,0.00
2023-03-12T01:54:08.440Z,-0.10
2023-03-12T01:56:39.022Z,-0.10
2023-03-12T01:59:14.759Z,-0.10
2023-03-12T02:01:45.245Z,0.00
2023-03-12T02:04:19.240Z,0.00
2023-03-12T02:06:55.066Z,0.00
2023-03-12T02:09:23.360Z,-0.10
2023-03-12T02:11:52.123Z,-0.10
2023-03-12T02:14:21.816Z,-0.10
2023-03-12T02:16:50.121Z,0.00
2023-03-12T02:19:32.947Z,0.00
2023-03-12T02:22:01.439Z,0.00
2023-03-12T02:24:36.925Z,0.10
2023-03-12T02:27:07.868Z,0.10
2023-03-12T02:29:41.094Z,0.20
2023-03-12T02:32:18.947Z,0.20
2023-03-12T02:34:48.026Z,0.20
2023-03-12T02:37:16.093Z,0.20
2023-03-12T02:39:58.453Z,0.20
2023-03-12T02:42:27.986Z,0.20
2023-03-12T02:44:56.380Z,0.10
2023-03-12T02:47:24.301Z,0.10
2023-03-12T02:49:53.786Z,0.10
2023-03-12T02:52:24.555Z,0.00
2023-03-12T02:54:52.843Z,0.00
2023-03-12T02:57:20.762Z,0.00
2023-03-12T02:59:52.857Z,0.00
2023-03-12T03:02:21.522Z,0.00
2023-03-12T03:04:49.431Z,-0.10
2023-03-12T03:07:17.744Z,-0.10
2023-03-12T03:09:45.628Z,-0.20
2023-03-12T03:12:13.512Z,-0.20
2023-03-12T03:14:42.083Z,-0.30
2023-03-12T03:17:11.626Z,-0.30
2023-03-12T03:19:39.534Z,-0.30
2023-03-12T03:22:07.628Z,-0.40
2023-03-12T03:24:36.149Z,-0.40
2023-03-12T03:27:04.166Z,-0.40
2023-03-12T03:29:32.201Z,-0.30
2023-03-12T03:32:01.487Z,-0.30
2023-03-12T03:34:31.138Z,-1.40
2023-03-12T03:36:59.206Z,-0.30
2023-03-12T03:39:29.639Z,-0.30
2023-03-12T03:41:58.045Z,-0.30
2023-03-12T03:44:28.614Z,-0.30
2023-03-12T03:46:56.526Z,-0.30
2023-03-12T03:49:24.892Z,-0.30
2023-03-12T03:51:54.640Z,-0.30
2023-03-12T03:54:31.056Z,-0.30
2023-03-12T03:56:59.242Z,-0.20
2023-03-12T03:59:27.846Z,-0.20
2023-03-12T04:01:55.870Z,-0.20
2023-03-12T04:04:23.968Z,-0.20
2023-03-12T04:06:52.154Z,-0.20
2023-03-12T04:09:21.669Z,-0.20
2023-03-12T04:11:49.708Z,-0.20
2023-03-12T04:14:17.728Z,-0.30
2023-03-12T04:16:47.241Z,-0.20
2023-03-12T04:19:15.290Z,-0.20
2023-03-12T04:21:43.513Z,-0.20
2023-03-12T04:24:18.504Z,-0.20
2023-03-12T04:26:48.042Z,-0.20
2023-03-12T04:29:17.232Z,-0.10
2023-03-12T04:31:45.521Z,0.00
2023-03-12T04:34:14.578Z,0.00
2023-03-12T04:36:45.125Z,0.10
2023-03-12T04:39:13.271Z,0.10
2023-03-12T04:41:41.375Z,0.00
2023-03-12T04:44:14.706Z,0.00
2023-03-12T04:46:44.275Z,0.00
2023-03-12T04:49:15.394Z,0.00
2023-03-12T04:51:44.323Z,0.00
2023-03-12T04:54:12.265Z,0.00
2023-03-12T04:56:41.658Z,0.00
2023-03-12T04:59:09.995Z,0.00
2023-03-12T05:01:39.901Z,0.00
2023-03-12T05:04:14.135Z,-0.10
2023-03-12T05:06:42.097Z,-0.10
2023-03-12T05:09:10.056Z,0.00
2023-03-12T05:11:39.916Z,0.00
2023-03-12T05:14:08.939Z,-0.10
2023-03-12T05:16:37.155Z,-0.10
2023-03-12T05:19:07.382Z,-0.10
2023-03-12T05:21:35.720Z,0.00
2023-03-12T05:24:03.947Z,0.00
2023-03-12T05:26:34.459Z,-0.10
2023-03-12T05:29:10.990Z,0.00
2023-03-12T05:31:39.316Z,0.00
2023-03-12T05:34:12.295Z,0.00
2023-03-12T05:36:41.885Z,0.10
2023-03-12T05:39:09.867Z,0.10
2023-03-12T05:41:37.804Z,0.20
2023-03-12T05:44:16.004Z,0.20
2023-03-12T05:46:46.299Z,0.40
2023-03-12T05:49:15.764Z,0.40
2023-03-12T05:51:44.159Z,0.50
2023-03-12T05:54:12.170Z,0.70
2023-03-12T05:56:43.243Z,0.90
2023-03-12T05:59:11.757Z,1.10
2023-03-12T06:01:42.551Z,1.30
2023-03-12T06:04:10.647Z,1.40
2023-03-12T06:06:40.488Z,1.60
2023-03-12T06:09:08.454Z,1.80
2023-03-12T06:11:36.725Z,1.90
2023-03-12T06:14:05.583Z,1.90
2023-03-12T06:16:35.513Z,1.90
2023-03-12T06:19:06.556Z,2.00
2023-03-12T06:21:36.878Z,2.00
2023-03-12T06:24:10.198Z,2.00
2023-03-12T06:26:50.830Z,2.10
2023-03-12T06:29:18.712Z,2.10
2023-03-12T06:31:48.204Z,2.00
2023-03-12T06:34:16.801Z,2.10
2023-03-12T06:36:44.716Z,2.00
2023-03-12T06:39:13.996Z,2.00
2023-03-12T06:41:42.559Z,2.00
2023-03-12T06:44:10.664Z,2.10
2023-03-12T06:46:38.878Z,2.10
2023-03-12T06:49:06.786Z,2.20
2023-03-12T06:51:34.667Z,2.20
2023-03-12T06:54:02.713Z,2.20
2023-03-12T06:56:32.528Z,2.30
2023-03-12T06:59:03.317Z,2.30
2023-03-12T07:01:31.430Z,2.40
2023-03-12T07:03:59.338Z,2.40
2023-03-12T07:06:27.494Z,2.50
2023-03-12T07:08:55.646Z,2.50
2023-03-12T07:11:23.521Z,2.60
2023-03-12T07:13:53.201Z,2.70
2023-03-12T07:16:21.109Z,2.70
2023-03-12T07:18:49.186Z,2.80
2023-03-12T07:21:22.658Z,3.00
2023-03-12T07:23:50.739Z,3.20
2023-03-12T07:26:19.263Z,3.50
2023-03-12T07:28:47.519Z,3.60
2023-03-12T07:31:16.813Z,3.70
2023-03-12T07:33:44.803Z,3.90
2023-03-12T07:36:13.106Z,3.90
2023-03-12T07:38:40.966Z,4.00
2023-03-12T07:41:09.452Z,4.10
2023-03-12T07:43:37.382Z,4.10
2023-03-12T07:46:05.670Z,4.10
2023-03-12T07:48:35.176Z,4.10
2023-03-12T07:51:03.177Z,4.10
2023-03-12T07:53:31.065Z,4.00
2023-03-12T07:55:59.181Z,4.00
2023-03-12T07:58:27.300Z,3.90
2023-03-12T08:00:57.097Z,3.80
2023-03-12T08:03:25.796Z,3.90
2023-03-12T08:06:00.695Z,4.00
2023-03-12T08:08:29.610Z,4.10
2023-03-12T08:10:58.481Z,4.20
2023-03-12T08:13:27.215Z,4.10
2023-03-12T08:15:55.928Z,4.30
2023-03-12T08:18:24.702Z,4.50
2023-03-12T08:20:53.865Z,4.60
2023-03-12T08:23:25.000Z,4.60
2023-03-12T08:25:54.132Z,4.70
2023-03-12T08:28:24.319Z,4.70
2023-03-12T08:30:56.518Z,4.80
2023-03-12T08:33:24.634Z,4.90
2023-03-12T08:35:53.107Z,5.00
2023-03-12T08:38:23.003Z,5.30
2023-03-12T08:40:57.776Z,5.50
2023-03-12T08:43:27.360Z,5.50
2023-03-12T08:45:57.556Z,5.50
2023-03-12T08:48:26.517Z,5.50
2023-03-12T08:50:57.446Z,5.50
2023-03-12T08:53:28.278Z,5.40
2023-03-12T08:55:57.701Z,5.50
2023-03-12T08:58:27.034Z,5.50
2023-03-12T09:00:56.458Z,5.60
2023-03-12T09:03:25.830Z,5.70
2023-03-12T09:06:09.751Z,5.80
2023-03-12T09:08:39.002Z,6.10
2023-03-12T09:11:09.043Z,6.10
2023-03-12T09:13:58.152Z,6.00
2023-03-12T09:16:25.273Z,5.70
2023-03-12T09:18:53.862Z,5.60
2023-03-12T09:21:22.499Z,5.40
2023-03-12T09:23:52.062Z,5.40
2023-03-12T09:26:19.940Z,3.80
2023-03-12T09:28:47.942Z,5.40
2023-03-12T09:31:15.907Z,5.30
2023-03-12T09:33:43.861Z,5.30
2023-03-12T09:36:11.850Z,5.50
2023-03-12T09:38:40.237Z,5.60
2023-03-12T09:41:20.775Z,5.60
2023-03-12T09:43:55.409Z,5.60
2023-03-12T09:46:31.832Z,5.50
2023-03-12T09:49:07.247Z,5.50
2023-03-12T09:51:42.220Z,5.50
2023-03-12T09:54:24.858Z,5.70
2023-03-12T09:56:59.148Z,5.80
2023-03-12T09:59:27.353Z,6.10
2023-03-12T10:02:01.722Z,6.20
2023-03-12T10:04:59.746Z,6.20
2023-03-12T10:07:35.552Z,6.30
2023-03-12T10:10:28.341Z,6.20
2023-03-12T10:13:18.264Z,6.10
2023-03-12T10:16:06.587Z,6.00
2023-03-12T10:18:56.877Z,5.90
2023-03-12T10:21:35.619Z,5.80
2023-03-12T10:24:25.371Z,5.70
2023-03-12T10:26:57.069Z,5.50
2023-03-12T10:29:31.385Z,5.30
2023-03-12T10:32:03.468Z,5.10
2023-03-12T10:34:40.186Z,5.10
2023-03-12T10:37:19.828Z,5.00
2023-03-12T10:39:48.998Z,5.10
2023-03-12T10:42:20.862Z,5.20
2023-03-12T10:44:54.977Z,5.60
2023-03-12T10:47:38.139Z,5.20
2023-03-12T10:50:19.844Z,5.30
2023-03-12T10:52:54.467Z,5.40
2023-03-12T10:55:27.382Z,5.60
2023-03-12T10:57:55.349Z,5.80
2023-03-12T11:00:27.945Z,6.00
2023-03-12T11:03:03.565Z,6.20
2023-03-12T11:05:36.151Z,6.20
2023-03-12T11:08:20.102Z,6.40
2023-03-12T11:10:49.059Z,6.40
2023-03-12T11:13:31.288Z,6.20
2023-03-12T11:16:02.862Z,6.00
2023-03-12T11:18:36.993Z,5.90
2023-03-12T11:21:20.625Z,6.00
2023-03-12T11:24:10.794Z,5.90
2023-03-12T11:26:50.433Z,5.90
2023-03-12T11:29:27.920Z,5.90
2023-03-12T11:32:11.595Z,5.80
2023-03-12T11:34:42.403Z,5.60
2023-03-12T11:37:20.722Z,5.50
2023-03-12T11:40:10.516Z,5.30
2023-03-12T11:43:08.125Z,5.20
2023-03-12T11:45:49.075Z,5.10
2023-03-12T11:48:30.665Z,4.90
2023-03-12T11:51:24.223Z,4.80
2023-03-12T11:54:25.550Z,4.80
2023-03-12T11:56:56.468Z,4.70
2023-03-12T11:59:44.584Z,4.70
2023-03-12T12:02:30.232Z,4.80
2023-03-12T12:05:23.818Z,4.80
2023-03-12T12:08:32.032Z,4.90
2023-03-12T12:11:13.408Z,4.80
2023-03-12T12:13:56.665Z,4.80
2023-03-12T12:16:52.385Z,4.90
2023-03-12T12:19:38.316Z,4.80
2023-03-12T12:22:32.896Z,4.90
2023-03-12T12:25:25.346Z,4.80
2023-03-12T12:28:18.564Z,4.90
2023-03-12T12:31:05.684Z,5.00
2023-03-12T12:33:56.571Z,4.60
2023-03-12T12:36:28.349Z,4.70
2023-03-12T12:39:06.057Z,4.90
2023-03-12T12:41:40.789Z,5.00
2023-03-12T12:44:17.600Z,5.00
2023-03-12T12:46:53.164Z,6.70
2023-03-12T12:49:26.869Z,5.00
2023-03-12T12:52:00.782Z,5.10
2023-03-12T12:54:39.261Z,5.20
2023-03-12T12:57:17.888Z,5.20
2023-03-12T13:00:04.874Z,5.20
2023-03-12T13:02:39.131Z,5.40
2023-03-12T13:05:21.944Z,5.50
2023-03-12T13:07:50.009Z,5.60
2023-03-12T13:10:57.006Z,5.60
2023-03-12T13:13:27.465Z,5.70
2023-03-12T13:16:33.609Z,5.70
2023-03-12T13:19:07.411Z,5.70
2023-03-12T13:21:41.935Z,5.70
2023-03-12T13:24:24.838Z,5.50
2023-03-12T13:27:01.812Z,5.30
2023-03-12T13:29:42.561Z,5.20
2023-03-12T13:32:55.945Z,5.10
2023-03-12T13:35:32.447Z,5.20
2023-03-12T13:38:05.651Z,4.90
2023-03-12T13:41:03.000Z,4.80
2023-03-12T13:43:56.242Z,4.90
2023-03-12T13:46:41.288Z,5.10
2023-03-12T13:49:19.666Z,5.30
2023-03-12T13:51:58.984Z,5.50
2023-03-12T13:54:33.098Z,5.50
2023-03-12T13:57:11.189Z,5.60
2023-03-12T13:59:46.771Z,5.60
2023-03-12T14:02:27.639Z,5.50
2023-03-12T14:05:04.567Z,5.30
2023-03-12T14:07:58.774Z,5.20
2023-03-12T14:10:41.514Z,5.40
2023-03-12T14:13:29.400Z,5.50
2023-03-12T14:16:10.854Z,5.60
2023-03-12T14:18:41.227Z,5.50
2023-03-12T14:21:15.812Z,5.30
2023-03-12T14:23:52.244Z,5.30
2023-03-12T14:26:25.416Z,5.20
2023-03-12T14:29:01.398Z,5.20
2023-03-12T14:31:32.827Z,5.20
2023-03-12T14:34:09.743Z,5.20
2023-03-12T14:36:44.088Z,5.20
2023-03-12T14:39:26.138Z,5.30
2023-03-12T14:42:01.092Z,5.40
2023-03-12T14:44:31.399Z,5.40
2023-03-12T14:47:07.307Z,5.30
2023-03-12T14:49:41.818Z,5.20
2023-03-12T14:52:13.503Z,5.20
2023-03-12T14:54:53.475Z,5.10
2023-03-12T14:57:24.535Z,5.10
2023-03-12T14:59:58.035Z,5.10
2023-03-12T15:02:30.199Z,5.10
2023-03-12T15:05:02.491Z,5.10
2023-03-12T15:07:36.029Z,5.20
2023-03-12T15:10:08.624Z,5.20
2023-03-12T15:12:39.004Z,5.30
2023-03-12T15:15:11.730Z,5.40
2023-03-12T15:17:44.080Z,5.40
2023-03-12T15:20:17.628Z,5.50
2023-03-12T15:22:45.899Z,5.50
2023-03-12T15:25:24.531Z,5.60
2023-03-12T15:28:09.114Z,5.60
2023-03-12T15:30:39.654Z,5.60
2023-03-12T15:33:25.565Z,5.60
2023-03-12T15:36:03.813Z,5.70
2023-03-12T15:38:35.045Z,5.70
2023-03-12T15:41:10.052Z,5.70
2023-03-12T15:43:38.474Z,5.70
2023-03-12T15:46:08.471Z,5.70
2023-03-12T15:48:41.310Z,5.70
2023-03-12T15:51:17.292Z,5.70
2023-03-12T15:53:45.213Z,6.60
2023-03-12T15:56:24.095Z,5.70
2023-03-12T15:59:03.743Z,5.80
2023-03-12T16:01:44.097Z,5.80
2023-03-12T16:04:14.396Z,5.80
2023-03-12T16:06:43.965Z,5.80
2023-03-12T16:09:19.797Z,5.80
2023-03-12T16:11:49.622Z,5.80
2023-03-12T16:14:24.490Z,5.70
2023-03-12T16:16:52.464Z,5.70
2023-03-12T16:19:24.290Z,5.60
2023-03-12T16:21:52.183Z,5.60
2023-03-12T16:24:20.069Z,5.60
2023-03-12T16:26:54.271Z,5.60
2023-03-12T16:29:24.030Z,5.50
2023-03-12T16:31:56.327Z,5.50
2023-03-12T16:34:25.663Z,5.40
2023-03-12T16:36:54.100Z,5.40
2023-03-12T16:39:23.834Z,5.30
2023-03-12T16:41:51.759Z,5.20
2023-03-12T16:44:22.826Z,5.20
2023-03-12T16:46:50.864Z,5.20
2023-03-12T16:49:20.825Z,5.20
2023-03-12T16:51:50.088Z,5.20
2023-03-12T16:54:18.309Z,4.80
2023-03-12T16:56:49.474Z,5.20
2023-03-12T16:59:28.102Z,5.20
2023-03-12T17:01:56.752Z,5.20
2023-03-12T17:04:24.770Z,5.20
2023-03-12T17:06:53.979Z,5.20
2023-03-12T17:09:22.283Z,5.30
2023-03-12T17:11:53.281Z,5.30
2023-03-12T17:14:24.115Z,5.30
2023-03-12T17:16:52.070Z,5.40
2023-03-12T17:19:20.092Z,5.40
2023-03-12T17:21:49.320Z,5.50
2023-03-12T17:24:18.624Z,5.50
2023-03-12T17:26:46.869Z,5.50
2023-03-12T17:29:14.734Z,5.50
2023-03-12T17:31:42.583Z,5.50
2023-03-12T17:34:10.577Z,5.60
2023-03-12T17:36:39.883Z,5.60
2023-03-12T17:39:10.702Z,5.60
2023-03-12T17:41:40.095Z,5.70
2023-03-12T17:44:08.427Z,5.70
2023-03-12T17:46:39.169Z,5.80
2023-03-12T17:49:08.935Z,5.80
2023-03-12T17:51:36.876Z,5.80
2023-03-12T17:54:05.126Z,5.80
2023-03-12T17:56:32.987Z,5.80
2023-03-12T17:59:02.275Z,5.80
2023-03-12T18:01:30.520Z,5.90
2023-03-12T18:03:58.412Z,5.90
2023-03-12T18:06:26.457Z,5.80
2023-03-12T18:08:54.366Z,5.80
2023-03-12T18:11:22.563Z,5.80
2023-03-12T18:13:50.439Z,5.90
2023-03-12T18:16:19.778Z,5.90
2023-03-12T18:18:47.664Z,5.90
2023-03-12T18:21:15.585Z,5.90
2023-03-12T18:23:45.906Z,5.90
2023-03-12T18:26:14.203Z,6.00
2023-03-12T18:28:42.441Z,6.10
2023-03-12T18:31:10.775Z,6.20
2023-03-12T18:33:41.751Z,6.20
2023-03-12T18:36:10.221Z,6.30
2023-03-12T18:38:38.138Z,6.40
2023-03-12T18:41:07.820Z,6.40
2023-03-12T18:43:37.272Z,6.40
2023-03-12T18:46:07.401Z,6.40
2023-03-12T18:48:35.806Z,6.40
2023-03-12T18:51:05.925Z,7.30
2023-03-12T18:53:34.159Z,6.60
2023-03-12T18:56:02.720Z,6.60
2023-03-12T18:58:30.931Z,6.60
2023-03-12T19:01:01.576Z,6.50
2023-03-12T19:03:33.694Z,6.50
2023-03-12T19:06:03.156Z,6.50
2023-03-12T19:08:32.648Z,6.50
2023-03-12T19:11:00.793Z,6.50
2023-03-12T19:13:28.676Z,6.60
2023-03-12T19:16:01.081Z,6.60
2023-03-12T19:18:29.638Z,6.50
2023-03-12T19:20:57.876Z,6.60
2023-03-12T19:23:26.069Z,6.60
2023-03-12T19:25:55.463Z,6.60
2023-03-12T19:28:23.298Z,6.70
2023-03-12T19:30:51.234Z,6.70
2023-03-12T19:33:19.154Z,6.70
2023-03-12T19:35:47.063Z,6.80
2023-03-12T19:38:15.044Z,6.80
2023-03-12T19:40:49.594Z,6.90
2023-03-12T19:43:19.318Z,6.90
2023-03-12T19:45:48.310Z,7.00
2023-03-12T19:48:16.953Z,7.00
2023-03-12T19:50:45.644Z,7.10
2023-03-12T19:53:14.178Z,7.20
2023-03-12T19:55:42.044Z,7.20
2023-03-12T19:58:09.899Z,7.30
2023-03-12T20:00:39.397Z,7.40
2023-03-12T20:03:10.649Z,7.40
2023-03-12T20:05:38.637Z,7.40
2023-03-12T20:08:07.648Z,7.50
2023-03-12T20:10:35.621Z,7.50
2023-03-12T20:13:03.483Z,7.50
2023-03-12T20:15:34.290Z,7.50
2023-03-12T20:18:03.939Z,7.50
2023-03-12T20:20:31.804Z,7.50
2023-03-12T20:22:59.642Z,7.50
2023-03-12T20:25:27.616Z,7.50
2023-03-12T20:27:55.791Z,7.50
2023-03-12T20:30:23.793Z,7.50
2023-03-12T20:32:51.761Z,7.50
2023-03-12T20:35:21.110Z,7.50
2023-03-12T20:37:49.035Z,7.40
2023-03-12T20:40:17.059Z,7.40
2023-03-12T20:42:44.948Z,7.40
2023-03-12T20:45:13.143Z,7.50
2023-03-12T20:47:41.100Z,7.40
2023-03-12T20:50:10.994Z,7.40
2023-03-12T20:52:40.268Z,7.40
2023-03-12T20:55:09.138Z,7.50
2023-03-12T20:57:37.383Z,7.40
2023-03-12T21:00:06.898Z,7.30
2023-03-12T21:02:35.370Z,7.20
2023-03-12T21:05:03.288Z,7.20
2023-03-12T21:07:31.217Z,7.20
2023-03-12T21:10:00.412Z,7.10
2023-03-12T21:12:28.381Z,7.00
2023-03-12T21:15:05.821Z,7.00
2023-03-12T21:17:34.849Z,7.00
2023-03-12T21:20:04.074Z,7.00
2023-03-12T21:22:32.304Z,6.90
2023-03-12T21:25:01.538Z,6.90
2023-03-12T21:27:35.688Z,6.90
2023-03-12T21:30:10.861Z,6.90
2023-03-12T21:32:38.818Z,6.80
2023-03-12T21:35:07.575Z,6.90
2023-03-12T21:37:35.936Z,7.10
2023-03-12T21:40:07.782Z,7.20
2023-03-12T21:42:35.701Z,7.30
2023-03-12T21:45:03.929Z,7.30
2023-03-12T21:47:31.930Z,7.20
2023-03-12T21:49:59.836Z,7.20
2023-03-12T21:52:27.687Z,7.10
2023-03-12T21:54:55.572Z,7.10
2023-03-12T21:57:25.394Z,7.20
2023-03-12T21:59:53.226Z,7.20
2023-03-12T22:02:21.150Z,7.20
2023-03-12T22:04:49.069Z,7.20
2023-03-12T22:07:16.981Z,7.30
2023-03-12T22:09:44.832Z,7.40
2023-03-12T22:12:13.061Z,7.40
2023-03-12T22:14:42.225Z,7.40
2023-03-12T22:17:10.439Z,7.40
2023-03-12T22:19:39.961Z,7.40
2023-03-12T22:22:09.555Z,7.40
2023-03-12T22:24:37.704Z,7.50
2023-03-12T22:27:07.425Z,7.40
2023-03-12T22:29:35.808Z,7.50
2023-03-12T22:32:05.793Z,7.50
2023-03-12T22:34:33.903Z,7.50
2023-03-12T22:37:01.992Z,7.50
2023-03-12T22:39:29.852Z,7.60
2023-03-12T22:41:57.685Z,7.60
2023-03-12T22:44:25.582Z,7.60
2023-03-12T22:46:53.549Z,7.70
2023-03-12T22:49:22.761Z,7.80
2023-03-12T22:51:50.617Z,7.90
2023-03-12T22:54:18.482Z,7.80
2023-03-12T22:56:50.962Z,7.80
2023-03-12T22:59:18.808Z,7.70
2023-03-12T23:01:46.842Z,7.80
2023-03-12T23:04:14.729Z,7.80
2023-03-12T23:06:44.012Z,7.70
2023-03-12T23:09:12.422Z,7.70
2023-03-12T23:11:41.030Z,7.70
2023-03-12T23:14:08.976Z,7.70
2023-03-12T23:16:36.844Z,7.60
2023-03-12T23:19:04.973Z,7.40
2023-03-12T23:21:32.813Z,7.30
2023-03-12T23:24:02.435Z,7.30
2023-03-12T23:26:30.489Z,7.30
2023-03-12T23:29:00.300Z,7.40
2023-03-12T23:31:30.105Z,7.40
2023-03-12T23:33:58.431Z,7.40
2023-03-12T23:36:29.292Z,7.40
2023-03-12T23:38:57.658Z,7.60
2023-03-12T23:41:30.151Z,7.60
2023-03-12T23:43:58.869Z,7.80
2023-03-12T23:46:27.277Z,7.80
2023-03-12T23:48:55.568Z,7.70
2023-03-12T23:51:26.432Z,7.70
2023-03-12T23:53:58.766Z,7.60
2023-03-12T23:56:34.065Z,7.60
2023-03-12T23:59:02.177Z,7.50
